Time;durP1;ratioP1;P1;durP2;ratioP2;P2;SDS_P1;SDS_P2;PMS_P1;PMS_P2;Temp;Humidity;BMP_temperature;BMP_pressure;BME280_temperature;BME280_humidity;BME280_pressure;Samples;Min_cycle;Max_cycle;Signal;HPM_P1;HPM_P2
2023/03/19 00:01:02;;;;;;;;;;;;;;;2.06;65.77;101971.30;107611;1254;96325;-61
2023/03/19 00:03:40;;;;;;;;;;;;;;;2.01;66.09;101970.56;107631;1254;109527;-63
2023/03/19 00:06:08;;;;;;;;;;;;;;;1.98;66.30;101964.86;107621;1254;109866;-61
2023/03/19 00:08:37;;;;;;;;;;;;;;;1.93;66.30;101966.61;107585;1258;108640;-61
2023/03/19 00:11:06;;;;;;;;;;;;;;;1.87;66.38;101964.13;107581;1253;95796;-61
2023/03/19 00:13:35;;;;;;;;;;;;;;;1.84;66.37;101963.51;107567;1258;95768;-61
2023/03/19 00:16:04;;;;;;;;;;;;;;;1.82;66.51;101962.35;107401;1254;109434;-61
2023/03/19 00:18:33;;;;;;;;;;;;;;;1.79;66.45;101959.63;107579;1253;109341;-61
2023/03/19 00:21:01;;;;;;;;;;;;;;;1.77;66.47;101958.27;107662;1254;107636;-61
2023/03/19 00:23:30;;;;;;;;;;;;;;;1.75;66.54;101957.11;107601;1254;95783;-60
2023/03/19 00:25:58;;;;;;;;;;;;;;;1.70;66.54;101951.59;107635;1254;96678;-60
2023/03/19 00:28:26;;;;;;;;;;;;;;;1.66;66.48;101949.42;107590;1252;108038;-61
2023/03/19 00:30:55;;;;;;;;;;;;;;;1.62;66.53;101949.55;107617;1254;108680;-62
2023/03/19 00:33:24;;;;;;;;;;;;;;;1.59;66.49;101954.27;107626;1254;108641;-62
2023/03/19 00:35:52;;;;;;;;;;;;;;;1.55;66.75;101952.41;107614;1254;95825;-60
2023/03/19 00:38:20;;;;;;;;;;;;;;;1.52;66.69;101952.15;107645;1253;95803;-61
2023/03/19 00:40:49;;;;;;;;;;;;;;;1.50;66.58;101946.58;107602;1256;108721;-61
2023/03/19 00:43:17;;;;;;;;;;;;;;;1.49;66.65;101945.90;107564;1254;109233;-61
2023/03/19 00:45:47;;;;;;;;;;;;;;;1.47;66.85;101944.02;107587;1253;108177;-63
2023/03/19 00:48:16;;;;;;;;;;;;;;;1.45;66.72;101941.95;107530;1253;95858;-62
2023/03/19 00:50:45;;;;;;;;;;;;;;;1.46;67.16;101942.98;107559;1254;95821;-61
2023/03/19 00:53:13;;;;;;;;;;;;;;;1.44;66.94;101938.64;107625;1252;108899;-60
2023/03/19 00:55:42;;;;;;;;;;;;;;;1.42;67.09;101939.23;107612;1256;109592;-61
2023/03/19 00:58:10;;;;;;;;;;;;;;;1.40;67.18;101938.73;107604;1254;107927;-60
2023/03/19 01:00:38;;;;;;;;;;;;;;;1.39;67.27;101942.30;107611;1254;95893;-61
2023/03/19 01:03:07;;;;;;;;;;;;;;;1.39;67.49;101937.21;107595;1254;95673;-61
2023/03/19 01:05:35;;;;;;;;;;;;;;;1.40;67.78;101937.15;107605;1254;109305;-62
2023/03/19 01:08:03;;;;;;;;;;;;;;;1.41;67.72;101938.02;107497;1254;110235;-61
2023/03/19 01:10:32;;;;;;;;;;;;;;;1.41;67.73;101938.91;107573;1252;109162;-60
2023/03/19 01:13:02;;;;;;;;;;;;;;;1.39;68.14;101936.85;107652;1254;95784;-61
2023/03/19 01:15:34;;;;;;;;;;;;;;;1.40;68.01;101934.50;107634;1254;95767;-61
2023/03/19 01:18:02;;;;;;;;;;;;;;;1.42;67.99;101932.89;107600;1253;109204;-62
2023/03/19 01:20:31;;;;;;;;;;;;;;;1.43;67.99;101935.13;107515;1253;108822;-61
2023/03/19 01:23:00;;;;;;;;;;;;;;;1.44;68.00;101932.11;107549;1258;108316;-61
2023/03/19 01:25:30;;;;;;;;;;;;;;;1.43;67.85;101929.48;107432;1254;95899;-61
2023/03/19 01:28:03;;;;;;;;;;;;;;;1.41;67.76;101930.41;107636;1254;95754;-60
2023/03/19 01:30:31;;;;;;;;;;;;;;;1.42;67.95;101930.23;107633;1254;110660;-62
2023/03/19 01:33:16;;;;;;;;;;;;;;;1.43;67.80;101932.48;107624;1256;109570;-60
2023/03/19 01:36:02;;;;;;;;;;;;;;;1.45;67.86;101933.12;107559;1253;108054;-60
2023/03/19 01:38:38;;;;;;;;;;;;;;;1.48;67.90;101928.45;107517;1253;95926;-62
2023/03/19 01:41:13;;;;;;;;;;;;;;;1.55;68.07;101927.86;107627;1252;95773;-61
2023/03/19 01:43:42;;;;;;;;;;;;;;;1.62;68.03;101925.87;107643;1256;108032;-63
2023/03/19 01:46:35;;;;;;;;;;;;;;;1.68;68.03;101927.77;107570;1253;109292;-61
2023/03/19 01:49:24;;;;;;;;;;;;;;;1.74;68.01;101928.66;107518;1257;108569;-61
2023/03/19 01:52:07;;;;;;;;;;;;;;;1.77;68.06;101928.39;107580;1254;95784;-61
2023/03/19 01:54:45;;;;;;;;;;;;;;;1.80;68.06;101929.87;107598;1254;95666;-61
2023/03/19 01:57:39;;;;;;;;;;;;;;;1.87;68.32;101931.06;107601;1253;108823;-60
2023/03/19 02:00:23;;;;;;;;;;;;;;;1.98;68.37;101928.23;107623;1254;109039;-61
2023/03/19 02:02:57;;;;;;;;;;;;;;;2.06;68.28;101923.88;107574;1253;108090;-61
2023/03/19 02:05:38;;;;;;;;;;;;;;;2.11;68.38;101921.02;107634;1253;96561;-62
2023/03/19 02:08:10;;;;;;;;;;;;;;;2.18;68.61;101921.86;107603;1254;96543;-61
2023/03/19 02:10:40;;;;;;;;;;;;;;;2.23;68.47;101924.90;107585;1253;107966;-61
2023/03/19 02:13:08;;;;;;;;;;;;;;;2.25;68.47;101925.68;107595;1254;110180;-61
2023/03/19 02:15:37;;;;;;;;;;;;;;;2.29;68.62;101926.42;107541;1253;108130;-61
2023/03/19 02:18:07;;;;;;;;;;;;;;;2.33;68.57;101931.45;107540;1254;96917;-61
2023/03/19 02:20:39;;;;;;;;;;;;;;;2.36;68.64;101927.44;107480;1254;96460;-61
2023/03/19 02:23:26;;;;;;;;;;;;;;;2.37;68.54;101927.59;107587;1253;110187;-61
2023/03/19 02:26:00;;;;;;;;;;;;;;;2.39;68.46;101929.98;107590;1253;109615;-62
2023/03/19 02:28:29;;;;;;;;;;;;;;;2.43;68.52;101925.41;107542;1253;107631;-61
2023/03/19 02:30:57;;;;;;;;;;;;;;;2.50;68.59;101925.33;107572;1254;96473;-61
2023/03/19 02:33:26;;;;;;;;;;;;;;;2.56;68.52;101921.94;107598;1254;96560;-61
2023/03/19 02:35:55;;;;;;;;;;;;;;;2.60;68.54;101922.14;107586;1254;111048;-62
2023/03/19 02:38:24;;;;;;;;;;;;;;;2.64;68.60;101917.04;107602;1254;110065;-62
2023/03/19 02:41:11;;;;;;;;;;;;;;;2.69;68.72;101920.58;107555;1254;107916;-62
2023/03/19 02:43:40;;;;;;;;;;;;;;;2.75;68.47;101919.48;107615;1254;96533;-61
2023/03/19 02:46:11;;;;;;;;;;;;;;;2.78;68.35;101920.81;107615;1254;96573;-60
2023/03/19 02:48:40;;;;;;;;;;;;;;;2.78;68.48;101920.26;107639;1254;111054;-61
2023/03/19 02:51:09;;;;;;;;;;;;;;;2.77;68.36;101921.34;107501;1254;110038;-64
2023/03/19 02:53:37;;;;;;;;;;;;;;;2.79;68.58;101921.11;107617;1257;107546;-62
2023/03/19 02:56:06;;;;;;;;;;;;;;;2.78;68.22;101919.36;107600;1254;96477;-61
2023/03/19 02:58:35;;;;;;;;;;;;;;;2.78;68.38;101916.38;107606;1252;96581;-61
2023/03/19 03:01:03;;;;;;;;;;;;;;;2.75;68.10;101918.77;107636;1252;111220;-61
2023/03/19 03:03:32;;;;;;;;;;;;;;;2.72;68.01;101920.30;107641;1254;109240;-62
2023/03/19 03:06:00;;;;;;;;;;;;;;;2.71;67.96;101922.98;107595;1253;108088;-61
2023/03/19 03:08:28;;;;;;;;;;;;;;;2.71;67.85;101918.39;107605;1254;96475;-62
2023/03/19 03:10:57;;;;;;;;;;;;;;;2.68;68.05;101918.66;107597;1254;96472;-62
2023/03/19 03:13:26;;;;;;;;;;;;;;;2.66;67.90;101922.80;107606;1253;110937;-61
2023/03/19 03:15:55;;;;;;;;;;;;;;;2.63;67.97;101925.77;107403;1254;109026;-60
2023/03/19 03:18:23;;;;;;;;;;;;;;;2.61;68.06;101925.30;107587;1254;107972;-62
2023/03/19 03:20:52;;;;;;;;;;;;;;;2.60;68.03;101926.20;107572;1254;97203;-63
2023/03/19 03:23:20;;;;;;;;;;;;;;;2.60;68.20;101926.04;107447;1253;96400;-61
2023/03/19 03:25:50;;;;;;;;;;;;;;;2.60;68.18;101924.99;107604;1254;110825;-62
2023/03/19 03:28:18;;;;;;;;;;;;;;;2.61;68.20;101928.15;107575;1256;110115;-62
2023/03/19 03:30:48;;;;;;;;;;;;;;;2.61;68.10;101923.73;107574;1256;107567;-62
2023/03/19 03:33:16;;;;;;;;;;;;;;;2.62;68.29;101927.05;107607;1254;96448;-62
2023/03/19 03:35:45;;;;;;;;;;;;;;;2.62;68.27;101927.95;107629;1254;96364;-62
2023/03/19 03:38:13;;;;;;;;;;;;;;;2.61;68.63;101930.26;107558;1254;110988;-62
2023/03/19 03:40:41;;;;;;;;;;;;;;;2.60;68.89;101929.96;107500;1254;109778;-61
2023/03/19 03:43:09;;;;;;;;;;;;;;;2.57;68.93;101931.10;107602;1254;107974;-62
2023/03/19 03:45:38;;;;;;;;;;;;;;;2.58;68.99;101929.50;107612;1254;96529;-62
2023/03/19 03:48:07;;;;;;;;;;;;;;;2.59;69.05;101927.16;107625;1254;96462;-62
2023/03/19 03:50:37;;;;;;;;;;;;;;;2.60;69.11;101928.71;107625;1252;110561;-62
2023/03/19 03:53:08;;;;;;;;;;;;;;;2.61;69.29;101928.30;107604;1254;110815;-61
2023/03/19 03:55:37;;;;;;;;;;;;;;;2.61;69.57;101927.43;107631;1253;107769;-62
2023/03/19 03:58:06;;;;;;;;;;;;;;;2.62;69.37;101926.52;107587;1254;96459;-60
2023/03/19 04:00:34;;;;;;;;;;;;;;;2.63;69.45;101926.14;107621;1254;96362;-62
2023/03/19 04:03:03;;;;;;;;;;;;;;;2.63;69.63;101922.39;107596;1254;109531;-61
2023/03/19 04:05:31;;;;;;;;;;;;;;;2.63;69.83;101922.73;107628;1254;109838;-61
2023/03/19 04:08:00;;;;;;;;;;;;;;;2.63;69.78;101920.46;107618;1254;108422;-62
2023/03/19 04:10:29;;;;;;;;;;;;;;;2.63;70.01;101913.89;107570;1253;96466;-61
2023/03/19 04:12:58;;;;;;;;;;;;;;;2.65;70.13;101918.93;107477;1254;96485;-61
2023/03/19 04:15:27;;;;;;;;;;;;;;;2.69;70.08;101917.05;107604;1254;110532;-62
2023/03/19 04:17:56;;;;;;;;;;;;;;;2.72;70.04;101919.60;107600;1254;110188;-62
2023/03/19 04:20:24;;;;;;;;;;;;;;;2.74;70.03;101922.53;107561;1252;107817;-61
2023/03/19 04:22:52;;;;;;;;;;;;;;;2.77;70.09;101927.71;107590;1254;96488;-61
2023/03/19 04:25:21;;;;;;;;;;;;;;;2.79;70.40;101927.29;107639;1254;96344;-62
2023/03/19 04:27:49;;;;;;;;;;;;;;;2.81;70.32;101929.52;107579;1254;110369;-63
2023/03/19 04:30:17;;;;;;;;;;;;;;;2.82;70.24;101931.08;107613;1254;109371;-61
2023/03/19 04:32:46;;;;;;;;;;;;;;;2.85;70.41;101928.86;107580;1254;107870;-61
2023/03/19 04:35:17;;;;;;;;;;;;;;;2.87;70.63;101922.91;107571;1259;96357;-62
2023/03/19 04:37:47;;;;;;;;;;;;;;;2.90;70.42;101921.57;107571;1257;96338;-61
2023/03/19 04:40:17;;;;;;;;;;;;;;;2.93;70.51;101923.58;107643;1254;109516;-62
2023/03/19 04:42:46;;;;;;;;;;;;;;;2.96;70.63;101925.79;107631;1254;109884;-61
2023/03/19 04:45:25;;;;;;;;;;;;;;;2.98;70.75;101928.88;107601;1254;108350;-62
2023/03/19 04:47:55;;;;;;;;;;;;;;;3.01;70.97;101928.09;107613;1255;96376;-61
2023/03/19 04:50:23;;;;;;;;;;;;;;;3.04;70.96;101932.75;107605;1254;96523;-61
2023/03/19 04:52:53;;;;;;;;;;;;;;;3.08;70.97;101930.80;107623;1257;110838;-61
2023/03/19 04:55:22;;;;;;;;;;;;;;;3.13;71.07;101933.81;107618;1256;109049;-60
2023/03/19 04:57:57;;;;;;;;;;;;;;;3.17;70.83;101936.16;107565;1254;107052;-60
2023/03/19 05:00:29;;;;;;;;;;;;;;;3.22;70.79;101936.14;107601;1254;96902;-62
2023/03/19 05:02:58;;;;;;;;;;;;;;;3.26;70.61;101934.55;107602;1257;96442;-62
2023/03/19 05:05:28;;;;;;;;;;;;;;;3.30;70.59;101934.05;107636;1256;109674;-61
2023/03/19 05:07:57;;;;;;;;;;;;;;;3.34;70.59;101935.48;107543;1255;107021;-60
2023/03/19 05:10:25;;;;;;;;;;;;;;;3.36;70.91;101932.91;107626;1255;108803;-62
2023/03/19 05:12:54;;;;;;;;;;;;;;;3.40;70.89;101931.18;107592;1255;96479;-62
2023/03/19 05:15:23;;;;;;;;;;;;;;;3.43;70.78;101932.64;107582;1254;96608;-61
2023/03/19 05:17:58;;;;;;;;;;;;;;;3.46;70.97;101932.88;107551;1254;110622;-61
2023/03/19 05:20:33;;;;;;;;;;;;;;;3.50;71.06;101931.30;107550;1255;109546;-60
2023/03/19 05:23:05;;;;;;;;;;;;;;;3.55;71.21;101929.17;107486;1254;108360;-61
2023/03/19 05:25:43;;;;;;;;;;;;;;;3.59;71.21;101929.52;107512;1254;97235;-61
2023/03/19 05:28:13;;;;;;;;;;;;;;;3.65;71.11;101926.07;107550;1254;96542;-61
2023/03/19 05:30:42;;;;;;;;;;;;;;;3.70;71.37;101923.21;107591;1258;108875;-64
2023/03/19 05:33:36;;;;;;;;;;;;;;;3.78;71.16;101930.55;107608;1254;109689;-62
2023/03/19 05:36:06;;;;;;;;;;;;;;;3.84;71.28;101931.18;107635;1254;108199;-61
2023/03/19 05:38:48;;;;;;;;;;;;;;;3.89;71.26;101933.27;107594;1254;96472;-62
2023/03/19 05:41:23;;;;;;;;;;;;;;;3.95;71.25;101930.73;107585;1254;96611;-62
2023/03/19 05:44:00;;;;;;;;;;;;;;;4.01;71.45;101929.76;107555;1254;110805;-62
2023/03/19 05:46:56;;;;;;;;;;;;;;;4.07;71.35;101924.88;107504;1253;109799;-64
2023/03/19 05:49:27;;;;;;;;;;;;;;;4.14;71.30;101925.48;107539;1255;108805;-63
2023/03/19 05:51:55;;;;;;;;;;;;;;;4.20;71.05;101922.19;107515;1255;96530;-64
2023/03/19 05:54:24;;;;;;;;;;;;;;;4.27;71.07;101923.87;107610;1256;96369;-61
2023/03/19 05:57:18;;;;;;;;;;;;;;;4.35;70.79;101923.87;107455;1257;110947;-64
2023/03/19 05:59:46;;;;;;;;;;;;;;;4.42;70.83;101932.09;107534;1257;110108;-60
2023/03/19 06:02:24;;;;;;;;;;;;;;;4.50;70.98;101938.33;107510;1254;108002;-63
2023/03/19 06:04:54;;;;;;;;;;;;;;;4.56;70.93;101942.15;107553;1257;96581;-61
2023/03/19 06:07:25;;;;;;;;;;;;;;;4.61;70.76;101944.55;107609;1253;96559;-62
2023/03/19 06:09:54;;;;;;;;;;;;;;;4.68;70.28;101953.30;107576;1253;110809;-62
2023/03/19 06:12:23;;;;;;;;;;;;;;;4.72;70.27;101955.63;107441;1255;108588;-61
2023/03/19 06:14:52;;;;;;;;;;;;;;;4.79;70.28;101954.81;107569;1255;108056;-63
2023/03/19 06:17:40;;;;;;;;;;;;;;;4.86;70.08;101956.60;107552;1254;96475;-60
2023/03/19 06:20:10;;;;;;;;;;;;;;;4.93;69.99;101956.98;107576;1254;96670;-62
2023/03/19 06:22:39;;;;;;;;;;;;;;;4.99;69.82;101955.11;107454;1254;109935;-62
2023/03/19 06:25:07;;;;;;;;;;;;;;;5.06;69.92;101955.33;107656;1254;110248;-62
2023/03/19 06:27:37;;;;;;;;;;;;;;;5.12;69.83;101955.06;107584;1254;108280;-63
2023/03/19 06:30:26;;;;;;;;;;;;;;;5.22;69.69;101953.70;107567;1254;96528;-64
2023/03/19 06:32:55;;;;;;;;;;;;;;;5.32;69.77;101953.77;107627;1253;96579;-62
2023/03/19 06:35:24;;;;;;;;;;;;;;;5.43;69.60;101951.30;107657;1254;111086;-61
2023/03/19 06:37:53;;;;;;;;;;;;;;;5.53;69.88;101954.89;107626;1254;108781;-62
2023/03/19 06:40:21;;;;;;;;;;;;;;;5.64;69.65;101951.17;107552;1254;108328;-62
2023/03/19 06:42:50;;;;;;;;;;;;;;;5.75;69.60;101948.66;107522;1254;96661;-62
2023/03/19 06:45:19;;;;;;;;;;;;;;;5.84;69.62;101947.15;107564;1254;96347;-62
2023/03/19 06:47:48;;;;;;;;;;;;;;;5.94;69.81;101949.67;107629;1254;110738;-62
2023/03/19 06:50:20;;;;;;;;;;;;;;;6.02;69.51;101953.09;107600;1254;110040;-61
2023/03/19 06:52:48;;;;;;;;;;;;;;;6.08;69.16;101955.46;107576;1256;107695;-61
2023/03/19 06:55:17;;;;;;;;;;;;;;;6.15;69.25;101958.48;107560;1254;96555;-62
2023/03/19 06:57:49;;;;;;;;;;;;;;;6.21;68.91;101961.02;107602;1257;96619;-64
2023/03/19 07:00:18;;;;;;;;;;;;;;;6.28;69.00;101965.30;107638;1254;110086;-63
2023/03/19 07:02:46;;;;;;;;;;;;;;;6.37;68.94;101963.22;107582;1254;110069;-63
2023/03/19 07:05:15;;;;;;;;;;;;;;;6.48;68.73;101962.70;107597;1253;107509;-61
2023/03/19 07:07:43;;;;;;;;;;;;;;;6.55;68.30;101968.73;107594;1254;96573;-62
2023/03/19 07:10:12;;;;;;;;;;;;;;;6.61;68.01;101970.21;107600;1254;96546;-62
2023/03/19 07:12:40;;;;;;;;;;;;;;;6.66;67.79;101964.80;107523;1254;110424;-63
2023/03/19 07:15:10;;;;;;;;;;;;;;;6.70;67.59;101963.11;107594;1254;109863;-62
2023/03/19 07:17:38;;;;;;;;;;;;;;;6.74;67.15;101965.25;107597;1254;107949;-62
2023/03/19 07:20:07;;;;;;;;;;;;;;;6.77;67.01;101968.09;107589;1253;96456;-62
2023/03/19 07:22:36;;;;;;;;;;;;;;;6.83;66.91;101971.38;107592;1254;96439;-61
2023/03/19 07:25:05;;;;;;;;;;;;;;;6.87;66.53;101971.13;107619;1254;110012;-62
2023/03/19 07:27:33;;;;;;;;;;;;;;;6.91;66.25;101971.98;107564;1254;109800;-63
2023/03/19 07:30:01;;;;;;;;;;;;;;;6.94;66.14;101977.90;107594;1254;108655;-62
2023/03/19 07:32:30;;;;;;;;;;;;;;;7.00;65.86;101976.70;107585;1254;96478;-62
2023/03/19 07:34:58;;;;;;;;;;;;;;;7.03;65.43;101974.76;107598;1256;96607;-61
2023/03/19 07:37:27;;;;;;;;;;;;;;;7.07;65.21;101969.73;107505;1254;110018;-61
2023/03/19 07:39:55;;;;;;;;;;;;;;;7.08;65.09;101968.93;107595;1256;110278;-63
2023/03/19 07:42:23;;;;;;;;;;;;;;;7.12;64.88;101963.20;107600;1254;107830;-64
2023/03/19 07:44:52;;;;;;;;;;;;;;;7.16;64.78;101958.34;107577;1252;96459;-62
2023/03/19 07:47:20;;;;;;;;;;;;;;;7.20;64.61;101954.36;107549;1254;96460;-62
2023/03/19 07:49:57;;;;;;;;;;;;;;;7.28;64.38;101957.52;107621;1253;110483;-62
2023/03/19 07:52:25;;;;;;;;;;;;;;;7.34;63.73;101957.55;107631;1254;108663;-61
2023/03/19 07:54:54;;;;;;;;;;;;;;;7.39;63.41;101953.65;107561;1254;108158;-62
2023/03/19 07:57:24;;;;;;;;;;;;;;;7.45;62.90;101952.28;107643;1253;96452;-63
2023/03/19 07:59:53;;;;;;;;;;;;;;;7.49;62.83;101952.20;107591;1254;96495;-62
2023/03/19 08:02:21;;;;;;;;;;;;;;;7.55;62.59;101951.01;107615;1256;110207;-60
2023/03/19 08:04:50;;;;;;;;;;;;;;;7.60;62.46;101952.70;107629;1254;110274;-62
2023/03/19 08:07:19;;;;;;;;;;;;;;;7.65;62.27;101956.69;107517;1254;108117;-62
2023/03/19 08:09:48;;;;;;;;;;;;;;;7.70;61.47;101953.92;107580;1254;96586;-62
2023/03/19 08:12:16;;;;;;;;;;;;;;;7.71;60.63;101954.06;107534;1254;97130;-63
2023/03/19 08:14:44;;;;;;;;;;;;;;;7.71;59.80;101952.45;107557;1254;109822;-64
2023/03/19 08:17:13;;;;;;;;;;;;;;;7.68;60.25;101951.53;107618;1254;109711;-64
2023/03/19 08:19:41;;;;;;;;;;;;;;;7.71;60.10;101958.14;107591;1257;107973;-63
2023/03/19 08:22:10;;;;;;;;;;;;;;;7.75;59.70;101956.65;107601;1256;96568;-63
2023/03/19 08:24:39;;;;;;;;;;;;;;;7.76;59.52;101954.30;107630;1254;96350;-66
2023/03/19 08:27:16;;;;;;;;;;;;;;;7.75;59.11;101956.65;107619;1254;110788;-63
2023/03/19 08:29:47;;;;;;;;;;;;;;;7.70;59.26;101959.27;107494;1254;109476;-62
2023/03/19 08:32:15;;;;;;;;;;;;;;;7.76;59.63;101955.91;107494;1254;109245;-62
2023/03/19 08:34:44;;;;;;;;;;;;;;;7.81;59.36;101951.67;107578;1254;96491;-63
2023/03/19 08:37:16;;;;;;;;;;;;;;;7.82;59.22;101953.02;107606;1254;96971;-64
2023/03/19 08:39:44;;;;;;;;;;;;;;;7.89;59.52;101952.61;107595;1254;110543;-63
2023/03/19 08:42:13;;;;;;;;;;;;;;;7.97;58.80;101949.65;107619;1254;109416;-63
2023/03/19 08:44:41;;;;;;;;;;;;;;;8.03;58.71;101951.85;107577;1254;107715;-64
2023/03/19 08:47:11;;;;;;;;;;;;;;;8.06;58.57;101951.63;107655;1252;96468;-63
2023/03/19 08:49:39;;;;;;;;;;;;;;;8.12;58.60;101945.19;107629;1254;96347;-64
2023/03/19 08:52:08;;;;;;;;;;;;;;;8.21;58.67;101944.89;107514;1253;110602;-64
2023/03/19 08:54:36;;;;;;;;;;;;;;;8.26;58.26;101940.10;107593;1254;109898;-63
2023/03/19 08:57:05;;;;;;;;;;;;;;;8.29;58.33;101941.34;107627;1254;108514;-61
2023/03/19 08:59:36;;;;;;;;;;;;;;;8.34;57.99;101941.58;107511;1254;96439;-67
2023/03/19 09:02:04;;;;;;;;;;;;;;;8.42;57.60;101942.51;107501;1254;96463;-61
2023/03/19 09:04:37;;;;;;;;;;;;;;;8.49;56.27;101940.02;107548;1254;110850;-61
2023/03/19 09:07:06;;;;;;;;;;;;;;;8.51;56.24;101940.08;107526;1254;109542;-62
2023/03/19 09:09:34;;;;;;;;;;;;;;;8.55;56.72;101935.52;107483;1257;108394;-62
2023/03/19 09:12:03;;;;;;;;;;;;;;;8.56;56.41;101931.70;107474;1254;96485;-61
2023/03/19 09:14:31;;;;;;;;;;;;;;;8.62;56.67;101933.83;107552;1254;96465;-62
2023/03/19 09:17:00;;;;;;;;;;;;;;;8.70;56.72;101931.25;107634;1254;110868;-63
2023/03/19 09:19:30;;;;;;;;;;;;;;;8.76;56.58;101930.80;107616;1254;109486;-63
2023/03/19 09:22:00;;;;;;;;;;;;;;;8.80;56.03;101926.31;107630;1254;107708;-63
2023/03/19 09:24:28;;;;;;;;;;;;;;;8.80;55.91;101922.95;107486;1254;96482;-61
2023/03/19 09:26:56;;;;;;;;;;;;;;;8.86;56.08;101919.14;107510;1257;96466;-62
2023/03/19 09:29:24;;;;;;;;;;;;;;;8.94;55.66;101918.05;107549;1253;110800;-64
2023/03/19 09:31:59;;;;;;;;;;;;;;;9.00;55.28;101919.52;107608;1253;109711;-62
2023/03/19 09:34:28;;;;;;;;;;;;;;;9.02;55.42;101915.42;107620;1254;107977;-63
2023/03/19 09:36:56;;;;;;;;;;;;;;;9.09;55.62;101916.43;107598;1252;96459;-62
2023/03/19 09:39:24;;;;;;;;;;;;;;;9.21;54.70;101913.85;107499;1257;96464;-62
2023/03/19 09:42:09;;;;;;;;;;;;;;;9.32;55.08;101910.27;107502;1254;110736;-62
2023/03/19 09:44:42;;;;;;;;;;;;;;;9.48;53.99;101905.70;107547;1256;109199;-62
2023/03/19 09:47:30;;;;;;;;;;;;;;;9.54;53.51;101901.65;107524;1257;107556;-63
2023/03/19 09:50:08;;;;;;;;;;;;;;;9.56;53.51;101902.27;107631;1253;96452;-62
2023/03/19 09:52:48;;;;;;;;;;;;;;;9.50;53.28;101906.83;107553;1253;96388;-65
2023/03/19 09:55:19;;;;;;;;;;;;;;;9.54;53.65;101904.54;107648;1254;109915;-63
2023/03/19 09:57:48;;;;;;;;;;;;;;;9.58;53.27;101904.48;107621;1254;109714;-63
2023/03/19 10:00:24;;;;;;;;;;;;;;;9.59;53.33;101902.13;107448;1253;107763;-64
2023/03/19 10:02:57;;;;;;;;;;;;;;;9.67;52.95;101899.96;107498;1253;96545;-62
2023/03/19 10:05:44;;;;;;;;;;;;;;;9.69;52.38;101898.93;107345;1254;205776;-63
2023/03/19 10:08:25;;;;;;;;;;;;;;;9.65;53.05;101896.69;107584;1253;110662;-61
2023/03/19 10:11:14;;;;;;;;;;;;;;;9.64;53.46;101891.40;107568;1254;109874;-61
2023/03/19 10:13:52;;;;;;;;;;;;;;;9.65;52.77;101889.02;107442;1254;109806;-64
2023/03/19 10:16:25;;;;;;;;;;;;;;;9.65;53.04;101884.14;107619;1254;96463;-63
2023/03/19 10:18:57;;;;;;;;;;;;;;;9.75;52.72;101882.23;107572;1253;96364;-61
2023/03/19 10:21:44;;;;;;;;;;;;;;;9.76;52.86;101876.94;107648;1254;110348;-63
2023/03/19 10:24:15;;;;;;;;;;;;;;;9.85;52.77;101877.26;107632;1253;108908;-61
2023/03/19 10:26:44;;;;;;;;;;;;;;;9.95;52.09;101874.09;107598;1254;109372;-62
2023/03/19 10:29:15;;;;;;;;;;;;;;;10.01;51.95;101868.49;107536;1252;96459;-62
2023/03/19 10:32:04;;;;;;;;;;;;;;;10.13;51.96;101869.95;107653;1253;96557;-60
2023/03/19 10:34:40;;;;;;;;;;;;;;;10.37;52.31;101863.13;107624;1254;110340;-60
2023/03/19 10:37:11;;;;;;;;;;;;;;;10.63;51.74;101858.60;107509;1254;110959;-63
2023/03/19 10:39:41;;;;;;;;;;;;;;;10.85;51.70;101853.67;107630;1253;107646;-63
2023/03/19 10:42:28;;;;;;;;;;;;;;;10.96;51.03;101854.66;107632;1254;96475;-60
2023/03/19 10:45:10;;;;;;;;;;;;;;;11.10;50.63;101849.15;107625;1254;96490;-63
2023/03/19 10:47:39;;;;;;;;;;;;;;;11.32;50.38;101850.20;107532;1253;110049;-62
2023/03/19 10:50:22;;;;;;;;;;;;;;;11.60;49.80;101840.58;107639;1253;109240;-63
2023/03/19 10:52:51;;;;;;;;;;;;;;;11.71;49.25;101840.09;107536;1253;107384;-62
2023/03/19 10:55:24;;;;;;;;;;;;;;;11.72;48.88;101838.80;107546;1253;96487;-63
2023/03/19 10:57:55;;;;;;;;;;;;;;;11.64;48.95;101832.35;107656;1256;96459;-62
2023/03/19 11:00:25;;;;;;;;;;;;;;;11.71;49.10;101832.23;107645;1252;110870;-62
2023/03/19 11:02:55;;;;;;;;;;;;;;;11.94;49.46;101828.27;107637;1254;109765;-62
2023/03/19 11:05:27;;;;;;;;;;;;;;;12.30;48.77;101825.52;107658;1252;107668;-61
2023/03/19 11:08:00;;;;;;;;;;;;;;;12.57;47.56;101819.95;107579;1254;96558;-62
2023/03/19 11:10:30;;;;;;;;;;;;;;;12.86;48.17;101817.85;107673;1253;96507;-62
2023/03/19 11:13:04;;;;;;;;;;;;;;;13.73;47.23;101814.05;107522;1254;109584;-62
2023/03/19 11:15:35;;;;;;;;;;;;;;;14.55;46.23;101802.05;107613;1253;109957;-62
2023/03/19 11:18:22;;;;;;;;;;;;;;;15.29;45.50;101797.02;107629;1253;108835;-62
2023/03/19 11:20:57;;;;;;;;;;;;;;;16.62;44.05;101787.27;107494;1253;96696;-63
2023/03/19 11:23:29;;;;;;;;;;;;;;;17.61;42.66;101781.59;107597;1252;96485;-63
2023/03/19 11:26:00;;;;;;;;;;;;;;;18.32;39.03;101774.84;107635;1254;109566;-62
2023/03/19 11:28:32;;;;;;;;;;;;;;;17.70;38.92;101773.89;107644;1252;109768;-62
2023/03/19 11:31:14;;;;;;;;;;;;;;;17.23;39.89;101773.13;107630;1254;108741;-62
2023/03/19 11:33:45;;;;;;;;;;;;;;;17.61;39.84;101768.82;107587;1252;96369;-62
2023/03/19 11:36:32;;;;;;;;;;;;;;;18.13;36.93;101766.05;107618;1253;96440;-63
2023/03/19 11:39:09;;;;;;;;;;;;;;;18.02;36.27;101757.95;107637;1254;110058;-63
2023/03/19 11:41:49;;;;;;;;;;;;;;;17.89;37.39;101754.04;107624;1253;109393;-63
2023/03/19 11:44:21;;;;;;;;;;;;;;;18.00;35.94;101746.02;107616;1254;108046;-62
2023/03/19 11:47:27;;;;;;;;;;;;;;;17.99;35.51;101743.77;107633;1254;96465;-63
2023/03/19 11:50:04;;;;;;;;;;;;;;;18.03;36.21;101746.64;106924;1261;96360;-63
2023/03/19 11:52:33;;;;;;;;;;;;;;;18.08;36.29;101751.16;107454;1253;109024;-63
2023/03/19 11:55:15;;;;;;;;;;;;;;;17.91;35.98;101747.31;107574;1253;110140;-62
2023/03/19 11:57:53;;;;;;;;;;;;;;;17.64;36.40;101746.73;107497;1254;108779;-63
2023/03/19 12:00:24;;;;;;;;;;;;;;;17.79;36.90;101743.23;107626;1254;96475;-64
2023/03/19 12:02:59;;;;;;;;;;;;;;;17.95;37.28;101740.69;107657;1252;96560;-62
2023/03/19 12:05:32;;;;;;;;;;;;;;;18.24;36.73;101734.21;107669;1254;110277;-64
2023/03/19 12:08:20;;;;;;;;;;;;;;;18.20;35.86;101737.16;107645;1253;109997;-63
2023/03/19 12:10:58;;;;;;;;;;;;;;;18.32;36.47;101729.36;107468;1253;108102;-64
2023/03/19 12:13:40;;;;;;;;;;;;;;;18.59;35.65;101723.20;107500;1253;96392;-64
2023/03/19 12:16:12;;;;;;;;;;;;;;;18.61;34.10;101718.10;107675;1253;97051;-62
2023/03/19 12:18:58;;;;;;;;;;;;;;;18.45;33.82;101721.98;107609;1254;110917;-62
2023/03/19 12:21:33;;;;;;;;;;;;;;;18.77;35.05;101717.09;107692;1253;110004;-62
2023/03/19 12:24:03;;;;;;;;;;;;;;;19.09;33.70;101712.83;107614;1256;108378;-63
2023/03/19 12:26:32;;;;;;;;;;;;;;;19.27;33.56;101714.46;107653;1254;96450;-62
2023/03/19 12:29:06;;;;;;;;;;;;;;;19.50;32.47;101710.21;107665;1256;96594;-63
2023/03/19 12:31:50;;;;;;;;;;;;;;;19.63;32.64;101707.29;107557;1254;110924;-64
2023/03/19 12:34:30;;;;;;;;;;;;;;;20.20;32.94;101705.15;107628;1253;110113;-62
2023/03/19 12:36:59;;;;;;;;;;;;;;;20.74;31.15;101702.31;107572;1254;108638;-62
2023/03/19 12:39:49;;;;;;;;;;;;;;;21.10;29.95;101696.86;107619;1253;96559;-64
2023/03/19 12:42:19;;;;;;;;;;;;;;;21.36;30.05;101692.45;107565;1254;96582;-64
2023/03/19 12:44:53;;;;;;;;;;;;;;;21.71;29.71;101692.48;107646;1256;110418;-64
2023/03/19 12:47:25;;;;;;;;;;;;;;;22.23;29.21;101686.52;107657;1253;109077;-63
2023/03/19 12:49:56;;;;;;;;;;;;;;;22.70;28.57;101689.46;107671;1252;106981;-64
2023/03/19 12:52:30;;;;;;;;;;;;;;;22.97;27.33;101694.12;107552;1253;96460;-63